createdAt,value
2023-01-27T00:02:23.387Z,98600.78
2023-01-27T00:05:14.681Z,98598.19
2023-01-27T00:08:03.639Z,98587.75
2023-01-27T00:11:11.807Z,98591.09
2023-01-27T00:13:58.297Z,98593.78
2023-01-27T00:16:45.723Z,98592.97
2023-01-27T00:19:33.200Z,98583.41
2023-01-27T00:22:49.828Z,98587.75
2023-01-27T00:25:38.852Z,98586.03
2023-01-27T00:28:26.608Z,98579.91
2023-01-27T00:31:34.307Z,98581.66
2023-01-27T00:34:21.788Z,98579.97
2023-01-27T00:37:09.350Z,98583.41
2023-01-27T00:39:56.802Z,98580.81
2023-01-27T00:42:45.927Z,98583.41
2023-01-27T00:45:52.669Z,98580.81
2023-01-27T00:48:40.308Z,98573.91
2023-01-27T00:51:28.307Z,98574.84
2023-01-27T00:54:16.034Z,98582.69
2023-01-27T00:57:04.417Z,98587.03
2023-01-27T00:59:53.334Z,98581.00
2023-01-27T01:02:41.527Z,98578.38
2023-01-27T01:05:29.570Z,98582.75
2023-01-27T01:08:17.343Z,98594.94
2023-01-27T01:11:07.049Z,98588.06
2023-01-27T01:13:56.564Z,98593.28
2023-01-27T01:16:45.649Z,98601.09
2023-01-27T01:19:33.765Z,98596.75
2023-01-27T01:22:21.510Z,98595.09
2023-01-27T01:25:09.950Z,98594.28
2023-01-27T01:27:57.739Z,98591.59
2023-01-27T01:30:45.393Z,98600.31
2023-01-27T01:33:34.412Z,98587.28
2023-01-27T01:36:22.858Z,98590.75
2023-01-27T01:39:10.905Z,98589.88
2023-01-27T01:41:59.380Z,98595.09
2023-01-27T01:44:47.103Z,98596.03
2023-01-27T01:47:34.525Z,98594.38
2023-01-27T01:50:23.637Z,98587.44
2023-01-27T01:53:13.067Z,98583.94
2023-01-27T01:56:07.938Z,98582.13
2023-01-27T01:59:03.142Z,98594.28
2023-01-27T02:01:53.833Z,98585.59
2023-01-27T02:04:47.498Z,98588.22
2023-01-27T02:07:51.292Z,98593.44
2023-01-27T02:11:18.936Z,98591.66
2023-01-27T02:14:06.510Z,98589.97
2023-01-27T02:16:54.626Z,98590.81
2023-01-27T02:19:58.347Z,98585.59
2023-01-27T02:23:00.781Z,98588.22
2023-01-27T02:25:58.788Z,98576.09
2023-01-27T02:28:47.038Z,98579.59
2023-01-27T02:31:35.163Z,98582.13
2023-01-27T02:34:35.744Z,98578.63
2023-01-27T02:37:25.216Z,98575.94
2023-01-27T02:40:16.016Z,98581.22
2023-01-27T02:43:06.545Z,98578.63
2023-01-27T02:45:54.000Z,98574.22
2023-01-27T02:48:41.629Z,98579.38
2023-01-27T02:51:29.684Z,98579.44
2023-01-27T02:54:17.274Z,98580.38
2023-01-27T02:57:04.917Z,98578.63
2023-01-27T02:59:53.737Z,98569.00
2023-01-27T03:02:41.443Z,98575.16
2023-01-27T03:05:28.899Z,98581.31
2023-01-27T03:08:16.938Z,98581.31
2023-01-27T03:11:04.329Z,98583.06
2023-01-27T03:13:53.550Z,98586.53
2023-01-27T03:16:59.700Z,98593.50
2023-01-27T03:19:53.292Z,98594.38
2023-01-27T03:22:42.761Z,98594.38
2023-01-27T03:25:30.438Z,98591.75
2023-01-27T03:28:18.314Z,98594.28
2023-01-27T03:31:08.853Z,98583.00
2023-01-27T03:33:57.802Z,98577.78
2023-01-27T03:37:02.873Z,98583.00
2023-01-27T03:40:08.413Z,98590.81
2023-01-27T03:43:13.427Z,98588.38
2023-01-27T03:46:20.250Z,98590.03
2023-01-27T03:49:09.375Z,98582.22
2023-01-27T03:51:57.102Z,98589.22
2023-01-27T03:54:44.637Z,98590.91
2023-01-27T03:57:32.088Z,98581.31
2023-01-27T04:00:21.729Z,98585.69
2023-01-27T04:03:27.338Z,98589.22
2023-01-27T04:06:37.191Z,98595.25
2023-01-27T04:09:27.853Z,98592.66
2023-01-27T04:12:15.569Z,98584.09
2023-01-27T04:15:03.131Z,98584.97
2023-01-27T04:17:50.773Z,98591.91
2023-01-27T04:20:38.543Z,98590.28
2023-01-27T04:23:27.381Z,98591.28
2023-01-27T04:26:15.178Z,98585.13
2023-01-27T04:29:05.255Z,98585.91
2023-01-27T04:31:53.247Z,98597.28
2023-01-27T04:34:43.198Z,98599.97
2023-01-27T04:37:30.754Z,98605.19
2023-01-27T04:40:20.175Z,98600.88
2023-01-27T04:43:07.817Z,98607.94
2023-01-27T04:45:55.320Z,98613.25
2023-01-27T04:48:43.060Z,98617.53
2023-01-27T04:51:30.733Z,98615.84
2023-01-27T04:54:18.291Z,98609.72
2023-01-27T04:57:07.363Z,98609.72
2023-01-27T04:59:54.981Z,98604.47
2023-01-27T05:02:42.743Z,98613.25
2023-01-27T05:05:30.236Z,98609.78
2023-01-27T05:08:17.862Z,98590.69
2023-01-27T05:11:08.238Z,98607.19
2023-01-27T05:14:00.336Z,98608.09
2023-01-27T05:16:48.142Z,98608.19
2023-01-27T05:19:35.472Z,98607.47
2023-01-27T05:22:22.891Z,98604.78
2023-01-27T05:25:11.570Z,98610.00
2023-01-27T05:27:59.456Z,98615.31
2023-01-27T05:30:48.330Z,98613.56
2023-01-27T05:33:36.308Z,98611.88
2023-01-27T05:36:27.055Z,98611.88
2023-01-27T05:39:15.145Z,98621.38
2023-01-27T05:42:02.764Z,98622.31
2023-01-27T05:44:50.661Z,98619.69
2023-01-27T05:47:39.606Z,98619.69
2023-01-27T05:50:28.028Z,98625.81
2023-01-27T05:53:18.618Z,98637.19
2023-01-27T05:56:10.288Z,98638.13
2023-01-27T05:58:59.344Z,98648.53
2023-01-27T06:01:46.652Z,98648.69
2023-01-27T06:04:35.645Z,98642.63
2023-01-27T06:07:23.301Z,98648.69
2023-01-27T06:10:12.630Z,98647.00
2023-01-27T06:13:00.753Z,98644.31
2023-01-27T06:15:49.167Z,98650.38
2023-01-27T06:18:38.111Z,98658.06
2023-01-27T06:21:26.958Z,98660.81
2023-01-27T06:24:19.859Z,98672.09
2023-01-27T06:27:07.535Z,98675.59
2023-01-27T06:29:54.932Z,98675.78
2023-01-27T06:32:42.512Z,98676.59
2023-01-27T06:35:31.021Z,98684.44
2023-01-27T06:38:20.208Z,98679.38
2023-01-27T06:41:08.507Z,98676.09
2023-01-27T06:43:56.581Z,98680.16
2023-01-27T06:46:44.561Z,98688.97
2023-01-27T06:49:32.327Z,98691.66
2023-01-27T06:52:20.379Z,98693.34
2023-01-27T06:55:10.445Z,98689.88
2023-01-27T06:57:58.293Z,98699.34
2023-01-27T07:00:46.302Z,98696.94
2023-01-27T07:06:20.573Z,98689.88
2023-01-27T07:09:08.069Z,98694.41
2023-01-27T07:11:57.128Z,98698.69
2023-01-27T07:14:44.626Z,98694.34
2023-01-27T07:17:32.331Z,98695.94
2023-01-27T07:20:20.657Z,98693.34
2023-01-27T07:23:08.894Z,98691.66
2023-01-27T07:25:56.332Z,98704.69
2023-01-27T07:28:45.014Z,98693.34
2023-01-27T07:31:34.613Z,98710.72
2023-01-27T07:34:23.845Z,98703.78
2023-01-27T07:37:12.306Z,98715.88
2023-01-27T07:40:00.013Z,98726.25
2023-01-27T07:42:47.475Z,98725.09
2023-01-27T07:45:37.004Z,98729.41
2023-01-27T07:48:25.202Z,98731.09
2023-01-27T07:51:14.521Z,98721.44
2023-01-27T07:54:02.309Z,98726.56
2023-01-27T07:56:49.745Z,98733.41
2023-01-27T07:59:37.380Z,98735.09
2023-01-27T08:02:28.487Z,98736.78
2023-01-27T08:05:16.397Z,98741.00
2023-01-27T08:08:04.825Z,98740.06
2023-01-27T08:10:54.450Z,98736.38
2023-01-27T08:13:43.475Z,98732.81
2023-01-27T08:16:31.562Z,98743.09
2023-01-27T08:19:21.052Z,98748.16
2023-01-27T08:22:08.795Z,98734.88
2023-01-27T08:24:56.376Z,98742.47
2023-01-27T08:27:44.375Z,98749.41
2023-01-27T08:30:32.404Z,98736.94
2023-01-27T08:33:20.577Z,98734.19
2023-01-27T08:36:13.686Z,98734.97
2023-01-27T08:39:01.235Z,98740.78
2023-01-27T08:41:48.770Z,98739.72
2023-01-27T08:44:36.540Z,98740.38
2023-01-27T08:47:24.089Z,98746.31
2023-01-27T08:50:13.268Z,98740.78
2023-01-27T08:53:04.252Z,98746.59
2023-01-27T08:55:54.202Z,98744.75
2023-01-27T08:58:47.344Z,98745.38
2023-01-27T09:01:34.830Z,98748.59
2023-01-27T09:04:23.668Z,98748.44
2023-01-27T09:07:11.699Z,98741.13
2023-01-27T09:10:13.632Z,98751.34
2023-01-27T09:13:02.072Z,98744.09
2023-01-27T09:15:52.646Z,98750.00
2023-01-27T09:18:41.154Z,98748.00
2023-01-27T09:21:31.793Z,98751.22
2023-01-27T09:24:21.560Z,98750.97
2023-01-27T09:27:10.602Z,98745.50
2023-01-27T09:29:58.183Z,98756.47
2023-01-27T09:32:45.906Z,98764.91
2023-01-27T09:35:42.220Z,98766.44
2023-01-27T09:38:35.859Z,98766.09
2023-01-27T09:41:47.856Z,98765.00
2023-01-27T09:45:21.568Z,98770.06
2023-01-27T09:48:29.008Z,98770.69
2023-01-27T09:51:30.881Z,98772.97
2023-01-27T09:54:42.806Z,98771.19
2023-01-27T09:57:43.311Z,98773.63
2023-01-27T10:00:59.232Z,98770.75
2023-01-27T10:04:10.470Z,98761.97
2023-01-27T10:07:39.925Z,98762.66
2023-01-27T10:10:47.693Z,98759.03
2023-01-27T10:13:50.059Z,98765.03
2023-01-27T10:16:59.887Z,98768.41
2023-01-27T10:20:10.132Z,98776.91
2023-01-27T10:23:21.617Z,98777.00
2023-01-27T10:26:24.227Z,98776.09
2023-01-27T10:29:22.649Z,98783.59
2023-01-27T10:32:25.104Z,98788.91
2023-01-27T10:35:20.916Z,98784.19
2023-01-27T10:38:20.979Z,98784.00
2023-01-27T10:41:26.605Z,98778.34
2023-01-27T10:44:39.419Z,98781.47
2023-01-27T10:47:52.296Z,98776.16
2023-01-27T10:50:46.889Z,98775.22
2023-01-27T10:53:48.934Z,98761.16
2023-01-27T10:56:45.898Z,98777.00
2023-01-27T10:59:52.244Z,98769.81
2023-01-27T11:03:08.471Z,98763.75
2023-01-27T11:06:08.351Z,98766.47
2023-01-27T11:09:09.472Z,98761.78
2023-01-27T11:12:02.763Z,98755.44
2023-01-27T11:14:53.498Z,98756.81
2023-01-27T11:17:49.928Z,98744.63
2023-01-27T11:20:45.796Z,98741.75
2023-01-27T11:23:40.910Z,98749.19
2023-01-27T11:26:40.452Z,98752.56
2023-01-27T11:29:39.370Z,98749.50
2023-01-27T11:32:45.564Z,98744.06
2023-01-27T11:35:33.507Z,98750.91
2023-01-27T11:38:24.417Z,98743.72
2023-01-27T11:41:14.526Z,98743.34
2023-01-27T11:44:07.813Z,98732.69
2023-01-27T11:46:57.295Z,98727.97
2023-01-27T11:49:52.263Z,98725.88
2023-01-27T11:52:39.602Z,98723.38
2023-01-27T11:55:38.246Z,98731.31
2023-01-27T11:58:32.316Z,98725.16
2023-01-27T12:01:29.715Z,98720.47
2023-01-27T12:04:26.577Z,98710.38
2023-01-27T12:07:22.213Z,98704.03
2023-01-27T12:10:29.330Z,98715.19
2023-01-27T12:13:19.921Z,98712.09
2023-01-27T12:16:08.873Z,98710.19
2023-01-27T12:19:03.636Z,98715.34
2023-01-27T12:21:58.871Z,98712.63
2023-01-27T12:24:53.757Z,98707.31
2023-01-27T12:27:53.002Z,98704.41
2023-01-27T12:30:41.295Z,98701.03
2023-01-27T12:33:34.242Z,98691.22
2023-01-27T12:36:23.582Z,98688.69
2023-01-27T12:39:45.266Z,98686.81
2023-01-27T12:42:39.439Z,98697.13
2023-01-27T12:45:31.947Z,98694.41
2023-01-27T12:48:22.822Z,98692.50
2023-01-27T12:51:18.263Z,98685.59
2023-01-27T12:54:18.487Z,98686.81
2023-01-27T12:57:14.262Z,98685.97
2023-01-27T13:00:02.601Z,98688.22
2023-01-27T13:02:51.968Z,98687.94
2023-01-27T13:05:43.776Z,98685.13
2023-01-27T13:08:34.865Z,98695.88
2023-01-27T13:11:37.264Z,98689.16
2023-01-27T13:14:28.923Z,98689.50
2023-01-27T13:17:40.148Z,98701.50
2023-01-27T13:20:35.420Z,98696.53
2023-01-27T13:23:27.512Z,98704.56
2023-01-27T13:26:22.655Z,98709.28
2023-01-27T13:29:20.203Z,98706.19
2023-01-27T13:32:19.300Z,98720.22
2023-01-27T13:35:20.699Z,98703.66
2023-01-27T13:38:22.885Z,98714.16
2023-01-27T13:41:24.347Z,98710.59
2023-01-27T13:44:27.660Z,98716.69
2023-01-27T13:47:21.543Z,98719.41
2023-01-27T13:50:25.938Z,98722.66
2023-01-27T13:53:20.037Z,98714.78
2023-01-27T13:56:29.505Z,98707.97
2023-01-27T13:59:39.756Z,98712.25
2023-01-27T14:03:18.471Z,98707.41
2023-01-27T14:06:35.532Z,98714.13
2023-01-27T14:09:50.657Z,98717.31
2023-01-27T14:12:59.723Z,98716.69
2023-01-27T14:16:02.244Z,98716.00
2023-01-27T14:18:58.319Z,98713.97
2023-01-27T14:21:54.886Z,98720.50
2023-01-27T14:24:54.066Z,98724.44
2023-01-27T14:27:47.785Z,98722.75
2023-01-27T14:30:43.228Z,98714.88
2023-01-27T14:34:00.756Z,98722.94
2023-01-27T14:37:00.971Z,98723.13
2023-01-27T14:40:09.054Z,98718.09
2023-01-27T14:43:19.703Z,98731.28
2023-01-27T14:46:22.191Z,98716.84
2023-01-27T14:49:24.763Z,98725.75
2023-01-27T14:52:31.721Z,98726.88
2023-01-27T14:55:35.818Z,98731.00
2023-01-27T14:58:41.952Z,98729.88
2023-01-27T15:01:42.762Z,98726.66
2023-01-27T15:04:43.654Z,98730.94
2023-01-27T15:07:47.816Z,98719.69
2023-01-27T15:11:00.236Z,98726.06
2023-01-27T15:14:10.848Z,98726.63
2023-01-27T15:17:20.332Z,98736.56
2023-01-27T15:20:48.485Z,98741.06
2023-01-27T15:24:11.191Z,98743.84
2023-01-27T15:27:02.395Z,98747.38
2023-01-27T15:29:50.651Z,98745.72
2023-01-27T15:32:39.274Z,98751.38
2023-01-27T15:35:41.452Z,98762.31
2023-01-27T15:38:35.217Z,98765.88
2023-01-27T15:41:23.069Z,98763.78
2023-01-27T15:44:20.242Z,98763.78
2023-01-27T15:47:14.060Z,98771.63
2023-01-27T15:50:14.030Z,98771.06
2023-01-27T15:53:12.590Z,98775.53
2023-01-27T15:56:03.531Z,98766.91
2023-01-27T15:59:04.664Z,98781.13
2023-01-27T16:02:11.387Z,98793.47
2023-01-27T16:05:17.102Z,98799.88
2023-01-27T16:08:12.376Z,98799.13
2023-01-27T16:11:39.281Z,98796.16
2023-01-27T16:14:47.330Z,98795.69
2023-01-27T16:18:00.990Z,98808.84
2023-01-27T16:20:56.478Z,98810.13
2023-01-27T16:23:57.342Z,98810.69
2023-01-27T16:26:53.259Z,98807.13
2023-01-27T16:29:48.599Z,98816.78
2023-01-27T16:32:43.695Z,98810.19
2023-01-27T16:35:40.552Z,98818.28
2023-01-27T16:38:32.690Z,98821.00
2023-01-27T16:41:26.841Z,98817.53
2023-01-27T16:44:21.457Z,98812.38
2023-01-27T16:47:24.474Z,98816.75
2023-01-27T16:50:37.003Z,98812.88
2023-01-27T16:53:26.728Z,98812.63
2023-01-27T16:56:24.323Z,98823.09
2023-01-27T16:59:30.588Z,98826.19
2023-01-27T17:02:25.177Z,98832.81
2023-01-27T17:05:19.257Z,98838.03
2023-01-27T17:08:19.767Z,98834.66
2023-01-27T17:11:17.612Z,98832.88
2023-01-27T17:14:28.666Z,98832.28
2023-01-27T17:17:22.111Z,98832.34
2023-01-27T17:20:23.165Z,98831.91
2023-01-27T17:23:28.379Z,98838.84
2023-01-27T17:26:20.429Z,98840.69
2023-01-27T17:29:08.044Z,98842.47
2023-01-27T17:31:56.010Z,98853.09
2023-01-27T17:34:43.971Z,98845.31
2023-01-27T17:37:33.702Z,98844.38
2023-01-27T17:40:24.193Z,98849.63
2023-01-27T17:43:31.813Z,98850.56
2023-01-27T17:46:23.244Z,98855.72
2023-01-27T17:49:17.519Z,98854.00
2023-01-27T17:52:12.090Z,98849.63
2023-01-27T17:55:01.757Z,98852.25
2023-01-27T17:57:55.402Z,98856.63
2023-01-27T18:00:46.849Z,98851.47
2023-01-27T18:03:37.057Z,98855.94
2023-01-27T18:06:29.558Z,98864.53
2023-01-27T18:09:23.077Z,98870.69
2023-01-27T18:12:32.037Z,98870.69
2023-01-27T18:15:43.196Z,98869.19
2023-01-27T18:18:33.486Z,98868.31
2023-01-27T18:21:25.598Z,98883.16
2023-01-27T18:24:21.947Z,98881.47
2023-01-27T18:27:31.039Z,98879.03
2023-01-27T18:30:21.371Z,98883.31
2023-01-27T18:33:14.284Z,98881.63
2023-01-27T18:36:02.233Z,98879.94
2023-01-27T18:38:51.295Z,98887.94
2023-01-27T18:41:48.610Z,98890.56
2023-01-27T18:44:39.505Z,98889.78
2023-01-27T18:47:34.696Z,98884.63
2023-01-27T18:50:26.320Z,98890.56
2023-01-27T18:53:17.819Z,98887.00
2023-01-27T18:56:05.507Z,98880.97
2023-01-27T18:58:54.167Z,98881.03
2023-01-27T19:01:42.157Z,98878.44
2023-01-27T19:04:30.164Z,98880.09
2023-01-27T19:07:20.070Z,98881.03
2023-01-27T19:10:16.687Z,98882.66
2023-01-27T19:13:05.805Z,98882.72
2023-01-27T19:15:55.893Z,98878.28
2023-01-27T19:18:45.601Z,98888.72
2023-01-27T19:21:33.174Z,98885.34
2023-01-27T19:24:21.985Z,98880.97
2023-01-27T19:27:14.195Z,98885.34
2023-01-27T19:30:25.830Z,98893.97
2023-01-27T19:33:25.404Z,98897.47
2023-01-27T19:36:22.514Z,98904.56
2023-01-27T19:39:16.906Z,98907.25
2023-01-27T19:42:07.981Z,98917.56
2023-01-27T19:44:55.319Z,98917.66
2023-01-27T19:47:44.825Z,98923.63
2023-01-27T19:50:32.794Z,98915.84
2023-01-27T19:53:22.188Z,98933.25
2023-01-27T19:56:17.137Z,98936.53
2023-01-27T19:59:06.007Z,98932.25
2023-01-27T20:01:53.982Z,98928.84
2023-01-27T20:04:41.908Z,98929.69
2023-01-27T20:07:31.375Z,98932.31
2023-01-27T20:10:25.743Z,98939.16
2023-01-27T20:13:17.309Z,98933.06
2023-01-27T20:16:07.228Z,98934.84
2023-01-27T20:18:56.845Z,98930.56
2023-01-27T20:21:45.953Z,98928.69
2023-01-27T20:24:33.878Z,98925.16
2023-01-27T20:27:21.283Z,98933.00
2023-01-27T20:30:14.967Z,98935.59
2023-01-27T20:33:05.477Z,98937.41
2023-01-27T20:35:53.271Z,98939.16
2023-01-27T20:38:42.142Z,98938.22
2023-01-27T20:41:29.728Z,98933.00
2023-01-27T20:44:18.263Z,98936.53
2023-01-27T20:47:06.054Z,98942.53
2023-01-27T20:49:55.094Z,98947.78
2023-01-27T20:52:43.101Z,98946.06
2023-01-27T20:55:31.756Z,98945.91
2023-01-27T20:58:19.452Z,98944.16
2023-01-27T21:01:09.269Z,98948.44
2023-01-27T21:03:56.727Z,98951.91
2023-01-27T21:06:45.652Z,98944.84
2023-01-27T21:09:33.574Z,98947.47
2023-01-27T21:12:22.176Z,98945.59
2023-01-27T21:15:12.250Z,98950.00
2023-01-27T21:18:00.830Z,98940.38
2023-01-27T21:20:50.025Z,98945.59
2023-01-27T21:23:38.965Z,98946.53
2023-01-27T21:26:27.097Z,98945.53
2023-01-27T21:29:15.242Z,98940.28
2023-01-27T21:32:07.464Z,98939.38
2023-01-27T21:34:56.514Z,98941.94
2023-01-27T21:37:44.787Z,98936.69
2023-01-27T21:40:34.667Z,98941.84
2023-01-27T21:43:40.153Z,98940.06
2023-01-27T21:46:27.786Z,98940.06
2023-01-27T21:49:15.863Z,98942.59
2023-01-27T21:52:04.091Z,98942.59
2023-01-27T21:54:52.282Z,98941.75
2023-01-27T21:57:41.805Z,98948.69
2023-01-27T22:00:30.341Z,98932.06
2023-01-27T22:03:18.361Z,98928.66
2023-01-27T22:06:07.153Z,98934.66
2023-01-27T22:08:54.938Z,98935.53
2023-01-27T22:11:43.982Z,98942.53
2023-01-27T22:14:33.851Z,98948.59
2023-01-27T22:17:21.663Z,98949.44
2023-01-27T22:20:13.835Z,98946.81
2023-01-27T22:23:01.730Z,98950.38
2023-01-27T22:25:50.572Z,98938.16
2023-01-27T22:28:38.563Z,98945.13
2023-01-27T22:31:27.917Z,98936.44
2023-01-27T22:34:16.042Z,98939.91
2023-01-27T22:37:03.983Z,98946.91
2023-01-27T22:39:51.892Z,98938.22
2023-01-27T22:42:40.736Z,98952.19
2023-01-27T22:45:28.899Z,98953.91
2023-01-27T22:48:18.051Z,98945.13
2023-01-27T22:51:06.699Z,98948.59
2023-01-27T22:53:54.679Z,98947.75
2023-01-27T22:56:43.190Z,98937.28
2023-01-27T22:59:31.256Z,98943.44
2023-01-27T23:02:19.140Z,98945.13
2023-01-27T23:05:09.473Z,98944.19
2023-01-27T23:07:57.131Z,98942.44
2023-01-27T23:10:45.038Z,98941.59
2023-01-27T23:13:34.210Z,98939.91
2023-01-27T23:16:23.390Z,98937.28
2023-01-27T23:19:14.627Z,98938.97
2023-01-27T23:22:03.671Z,98946.81
2023-01-27T23:24:51.540Z,98936.34
2023-01-27T23:27:39.893Z,98939.91
2023-01-27T23:30:27.886Z,98945.13
2023-01-27T23:33:17.165Z,98937.38
2023-01-27T23:36:07.131Z,98928.59
2023-01-27T23:38:56.746Z,98940.84
2023-01-27T23:41:44.487Z,98938.16
2023-01-27T23:44:32.418Z,98925.88
2023-01-27T23:47:20.361Z,98922.44
2023-01-27T23:50:09.641Z,98925.88
2023-01-27T23:52:57.783Z,98924.22
2023-01-27T23:55:57.057Z,98929.44
2023-01-27T23:58:45.254Z,98937.28
